Terminal Aerodrome Forecast
Issued by NWS Bismarck, ND

Home | Current Version | Previous Version | Graphics & Text | Print | Product List | Glossary On
Versions: 1 2 3 4 5 6 7 8 9 10 11 12 13 14 15 16 17
512
FTUS43 KBIS 221725
TAFISN
TAF
KISN 221725Z 2218/2318 31020G28KT P6SM SKC
     FM230200 36012KT P6SM SKC
     FM230400 02007KT P6SM SKC
     FM230800 10004KT P6SM SKC
     FM231400 16004KT P6SM FEW070 FEW250=

USA.gov is the U.S. government's official web portal to all federal, state and local government web resources and services.